Janice Tyson — WDC8442 — position and weather

sailwx.info

Track history (hours):
 
Tides and Currents Weather Stations Pressure Air Temp Water Temp Dewpoint Dewpoint Depression Visibility Wind Speed Wind Dir Waves Ship Positions

Janice Tyson

Owner: Florida Marine, LLC, Mandeville, LA. More information available from US FCC via Universal Licensing System and Coast Guard Vessel Documentation Center.

Last reported at 2018-Jun-21 21:30 UTC. Time now 2018-Jun-21 21:31 UTC.
Position N 30°06' W 093°20'.

Length 27 m; draft 3 m.

Type: Towing. MMSI: 367087180.

Date/timePositionNaut miles runAvg speedWind from/ knotsBaromVisibWave heightAir tempDewpointWater temp
2018-Jun-21 21:30N 30°06' W 093°20'2 4.0
2018-Jun-21 21:00N 30°04' W 093°21'2 3.3
2018-Jun-21 20:30N 30°04' W 093°23'3 5.4
2018-Jun-21 20:00N 30°04' W 093°26'3 5.3
2018-Jun-21 19:30N 30°04' W 093°29'3 5.3
2018-Jun-21 19:00N 30°04' W 093°32'3 5.5
2018-Jun-21 18:30N 30°04' W 093°35'3 5.4
2018-Jun-21 18:00N 30°04' W 093°38'3 6.0
2018-Jun-21 17:30N 30°04' W 093°42'3 5.1
2018-Jun-21 17:00N 30°02' W 093°44'3 5.4
2018-Jun-21 16:30N 30°00' W 093°46'3 5.8
2018-Jun-21 16:00N 29°59' W 093°49'2 4.6
2018-Jun-21 15:30N 29°59' W 093°52'4 7.2
2018-Jun-21 15:00N 29°59' W 093°56'3 5.9
2018-Jun-21 14:30N 30°01' W 093°59'0 0.3
2018-Jun-21 14:00N 30°01' W 093°59'0 0.1
2018-Jun-21 13:31N 30°01' W 093°59'0 0.6
2018-Jun-21 13:00N 30°01' W 093°59'0 0.0
2018-Jun-21 12:30N 30°01' W 093°59'0 0.0
2018-Jun-21 12:00N 30°01' W 093°59'0 0.0
2018-Jun-21 11:30N 30°01' W 093°59'0 0.0
2018-Jun-21 10:58N 30°01' W 093°59'0 0.0
2018-Jun-21 10:30N 30°01' W 093°59'0 0.0
2018-Jun-21 09:59N 30°01' W 093°59'0 0.0
2018-Jun-21 09:30N 30°01' W 093°59'0 0.0
2018-Jun-21 08:59N 30°01' W 093°59'0 0.0
2018-Jun-21 08:30N 30°01' W 093°59'0 0.0
2018-Jun-21 08:00N 30°01' W 093°59'0 0.0
2018-Jun-21 07:30N 30°01' W 093°59'0 0.0
2018-Jun-21 07:00N 30°01' W 093°59'0 0.0
2018-Jun-21 06:30N 30°01' W 093°59'0 0.0
2018-Jun-21 06:00N 30°01' W 093°59'0 0.0
2018-Jun-21 05:30N 30°01' W 093°59'0 0.0
2018-Jun-21 05:00N 30°01' W 093°59'0 0.0
2018-Jun-21 04:30N 30°01' W 093°59'0 0.0
2018-Jun-21 04:00N 30°01' W 093°59'0 0.0
2018-Jun-21 03:30N 30°01' W 093°59'0 0.0
2018-Jun-21 03:00N 30°01' W 093°59'0 0.0
2018-Jun-21 02:30N 30°01' W 093°59'0 0.0
2018-Jun-21 02:00N 30°01' W 093°59'0 0.0
2018-Jun-21 01:30N 30°01' W 093°59'0 0.0
2018-Jun-21 01:00N 30°01' W 093°59'0 0.0
2018-Jun-21 00:30N 30°01' W 093°59'0 0.0
2018-Jun-21 00:00N 30°01' W 093°59'0 0.0
2018-Jun-20 23:30N 30°01' W 093°59'0 0.0
2018-Jun-20 23:00N 30°01' W 093°59'0 0.0
2018-Jun-20 22:29N 30°01' W 093°59'0 0.0
2018-Jun-20 22:00N 30°01' W 093°59'0 0.0
2018-Jun-20 21:30N 30°01' W 093°59'0 0.0
2018-Jun-20 21:00N 30°01' W 093°59'0 0.0
2018-Jun-20 20:30N 30°01' W 093°59'1 1.6
2018-Jun-20 20:00N 30°01' W 093°59'1 1.6
2018-Jun-20 19:31N 30°01' W 093°59'0 0.0
2018-Jun-20 19:00N 30°01' W 093°59'0 0.0
2018-Jun-20 18:31N 30°01' W 093°59'1 1.6
2018-Jun-20 18:01N 30°01' W 093°59'1 1.7
2018-Jun-20 17:31N 30°01' W 093°59'3 6.5
2018-Jun-20 17:01N 29°59' W 093°55'4 7.2
2018-Jun-20 16:30N 29°58' W 093°51'0 0.9
2018-Jun-20 16:00N 29°58' W 093°51'1 2.8
2018-Jun-20 15:30N 29°59' W 093°49'3 5.1
2018-Jun-20 15:01N 29°60' W 093°46'3 5.5
2018-Jun-20 14:31N 30°02' W 093°44'3 5.1
2018-Jun-20 14:01N 30°03' W 093°42'3 6.7
2018-Jun-20 13:30N 30°04' W 093°38'4 7.5
2018-Jun-20 13:00N 30°04' W 093°34'3 7.0
2018-Jun-20 12:30N 30°04' W 093°30'3 6.9
2018-Jun-20 12:00N 30°04' W 093°26'3 6.6
2018-Jun-20 11:30N 30°04' W 093°22'2 4.9
2018-Jun-20 11:01N 30°05' W 093°20'2 4.0
2018-Jun-20 10:30N 30°05' W 093°18'1 1.8
2018-Jun-20 09:59N 30°05' W 093°17'0 0.7
2018-Jun-20 09:30N 30°04' W 093°16'0 0.7
2018-Jun-20 09:00N 30°04' W 093°16'0 0.0
2018-Jun-20 08:31N 30°04' W 093°16'0 0.0
2018-Jun-20 08:00N 30°04' W 093°16'0 0.0
2018-Jun-20 07:30N 30°04' W 093°16'0 0.0
2018-Jun-20 07:01N 30°04' W 093°16'0 0.0
2018-Jun-20 06:30N 30°04' W 093°16'0 0.0
2018-Jun-20 06:01N 30°04' W 093°16'0 0.0
2018-Jun-20 05:30N 30°04' W 093°16'0 0.0
2018-Jun-20 05:00N 30°04' W 093°16'0 0.0
2018-Jun-20 04:31N 30°04' W 093°16'0 0.1
2018-Jun-20 04:01N 30°04' W 093°16'1 1.5
2018-Jun-20 03:30N 30°03' W 093°16'1 2.4
2018-Jun-20 03:00N 30°02' W 093°15'0 0.4
2018-Jun-20 02:30N 30°02' W 093°15'0 0.0
2018-Jun-20 02:01N 30°02' W 093°15'0 0.0
2018-Jun-20 01:31N 30°02' W 093°15'0 0.0
2018-Jun-20 01:00N 30°02' W 093°15'0 0.0
2018-Jun-20 00:30N 30°02' W 093°15'0 0.0
2018-Jun-20 00:00N 30°02' W 093°15'0 0.0
2018-Jun-19 23:30N 30°02' W 093°15'0 0.0
2018-Jun-19 23:01N 30°02' W 093°15'0 0.0
2018-Jun-19 22:30N 30°02' W 093°15'0 0.0
2018-Jun-19 22:01N 30°02' W 093°15'0 0.0
2018-Jun-19 21:30N 30°02' W 093°15'0 0.0
2018-Jun-19 21:01N 30°02' W 093°15'0 0.0
2018-Jun-19 20:31N 30°02' W 093°15'0 0.0
2018-Jun-19 20:01N 30°02' W 093°15'0 0.0
2018-Jun-19 19:30N 30°02' W 093°15'0 0.0
2018-Jun-19 19:00N 30°02' W 093°15'0 0.0
2018-Jun-19 18:31N 30°02' W 093°15'0 0.0
2018-Jun-19 18:01N 30°02' W 093°15'0 0.0
2018-Jun-19 17:31N 30°02' W 093°15'0 0.0
2018-Jun-19 17:00N 30°02' W 093°15'0 0.0
2018-Jun-19 16:31N 30°02' W 093°15'0 0.0
2018-Jun-19 16:00N 30°02' W 093°15'0 0.0
2018-Jun-19 15:31N 30°02' W 093°15'0 0.0
2018-Jun-19 15:00N 30°02' W 093°15'0 0.6
2018-Jun-19 14:30N 30°02' W 093°15'3 5.5
2018-Jun-19 14:00N 29°60' W 093°13'3 5.9
2018-Jun-19 13:30N 29°58' W 093°11'3 5.1
2018-Jun-19 13:00N 29°56' W 093°08'40 5.3
2018-Jun-19 05:33N 29°53' W 092°23'0 5.6
2018-Jun-19 05:30N 29°52' W 092°23'3 5.2
2018-Jun-19 04:59N 29°51' W 092°21'3 5.3
2018-Jun-19 04:31N 29°50' W 092°18'2 4.7
2018-Jun-19 04:01N 29°48' W 092°16'2 4.7
2018-Jun-19 03:31N 29°47' W 092°13'1 1.2
2018-Jun-19 03:00N 29°47' W 092°12'1 1.8
2018-Jun-19 02:30N 29°47' W 092°11'0 1.0
2018-Jun-19 02:00N 29°47' W 092°11'0 0.0
2018-Jun-19 01:30N 29°47' W 092°11'0 0.0
2018-Jun-19 01:00N 29°47' W 092°11'0 0.0
2018-Jun-19 00:30N 29°47' W 092°11'0 0.0
2018-Jun-19 00:00N 29°47' W 092°11'0 0.0
2018-Jun-18 23:30N 29°47' W 092°11'0 0.0
2018-Jun-18 23:00N 29°47' W 092°11'0 0.0
2018-Jun-18 22:31N 29°47' W 092°11'0 0.0
2018-Jun-18 22:00N 29°47' W 092°11'0 0.1
2018-Jun-18 21:30N 29°47' W 092°11'1 2.4
2018-Jun-18 21:01N 29°47' W 092°10'0 0.0
2018-Jun-18 20:30N 29°47' W 092°10'0 0.0
2018-Jun-18 20:01N 29°47' W 092°10'0 0.0
2018-Jun-18 19:30N 29°47' W 092°10'2 4.5
2018-Jun-18 19:00N 29°47' W 092°07'3 5.3
2018-Jun-18 18:30N 29°48' W 092°04'3 6.0
2018-Jun-18 18:00N 29°49' W 092°01'3 6.8
2018-Jun-18 17:30N 29°50' W 091°57'53 4.7
2018-Jun-18 06:17N 29°36' W 090°58'2 5.7
2018-Jun-18 06:01N 29°35' W 090°57'3 5.6
2018-Jun-18 05:30N 29°33' W 090°55'3 5.8
2018-Jun-18 05:00N 29°32' W 090°51'3 6.1
2018-Jun-18 04:30N 29°32' W 090°48'3 5.4
2018-Jun-18 04:00N 29°33' W 090°45'2 4.8
2018-Jun-18 03:31N 29°35' W 090°43'2 4.6
2018-Jun-18 03:00N 29°37' W 090°42'2 3.8
2018-Jun-18 02:31N 29°36' W 090°40'3 5.8
2018-Jun-18 02:01N 29°35' W 090°37'2 4.9
2018-Jun-18 01:30N 29°34' W 090°34'3 5.5
2018-Jun-18 01:00N 29°34' W 090°31'3 6.1
2018-Jun-18 00:30N 29°33' W 090°27'3 6.0
2018-Jun-17 23:59N 29°33' W 090°24'  
Track history (hours):
 
Tides and Currents Weather Stations Pressure Air Temp Water Temp Dewpoint Dewpoint Depression Visibility Wind Speed Wind Dir Waves Ship Positions

Janice Tyson

Owner: Florida Marine, LLC, Mandeville, LA. More information available from US FCC via Universal Licensing System and Coast Guard Vessel Documentation Center.

Last reported at 2018-Jun-21 21:30 UTC. Time now 2018-Jun-21 21:31 UTC.
Position N 30°06' W 093°20'.

Length 27 m; draft 3 m.

Type: Towing. MMSI: 367087180.

Date/timePositionNaut miles runAvg speedWind from/ knotsBaromVisibWave heightAir tempDewpointWater temp
2018-Jun-21 21:30N 30°06' W 093°20'2 4.0
2018-Jun-21 21:00N 30°04' W 093°21'2 3.3
2018-Jun-21 20:30N 30°04' W 093°23'3 5.4
2018-Jun-21 20:00N 30°04' W 093°26'3 5.3
2018-Jun-21 19:30N 30°04' W 093°29'3 5.3
2018-Jun-21 19:00N 30°04' W 093°32'3 5.5
2018-Jun-21 18:30N 30°04' W 093°35'3 5.4
2018-Jun-21 18:00N 30°04' W 093°38'3 6.0
2018-Jun-21 17:30N 30°04' W 093°42'3 5.1
2018-Jun-21 17:00N 30°02' W 093°44'3 5.4
2018-Jun-21 16:30N 30°00' W 093°46'3 5.8
2018-Jun-21 16:00N 29°59' W 093°49'2 4.6
2018-Jun-21 15:30N 29°59' W 093°52'4 7.2
2018-Jun-21 15:00N 29°59' W 093°56'3 5.9
2018-Jun-21 14:30N 30°01' W 093°59'0 0.3
2018-Jun-21 14:00N 30°01' W 093°59'0 0.1
2018-Jun-21 13:31N 30°01' W 093°59'0 0.6
2018-Jun-21 13:00N 30°01' W 093°59'0 0.0
2018-Jun-21 12:30N 30°01' W 093°59'0 0.0
2018-Jun-21 12:00N 30°01' W 093°59'0 0.0
2018-Jun-21 11:30N 30°01' W 093°59'0 0.0
2018-Jun-21 10:58N 30°01' W 093°59'0 0.0
2018-Jun-21 10:30N 30°01' W 093°59'0 0.0
2018-Jun-21 09:59N 30°01' W 093°59'0 0.0
2018-Jun-21 09:30N 30°01' W 093°59'0 0.0
2018-Jun-21 08:59N 30°01' W 093°59'0 0.0
2018-Jun-21 08:30N 30°01' W 093°59'0 0.0
2018-Jun-21 08:00N 30°01' W 093°59'0 0.0
2018-Jun-21 07:30N 30°01' W 093°59'0 0.0
2018-Jun-21 07:00N 30°01' W 093°59'0 0.0
2018-Jun-21 06:30N 30°01' W 093°59'0 0.0
2018-Jun-21 06:00N 30°01' W 093°59'0 0.0
2018-Jun-21 05:30N 30°01' W 093°59'0 0.0
2018-Jun-21 05:00N 30°01' W 093°59'0 0.0
2018-Jun-21 04:30N 30°01' W 093°59'0 0.0
2018-Jun-21 04:00N 30°01' W 093°59'0 0.0
2018-Jun-21 03:30N 30°01' W 093°59'0 0.0
2018-Jun-21 03:00N 30°01' W 093°59'0 0.0
2018-Jun-21 02:30N 30°01' W 093°59'0 0.0
2018-Jun-21 02:00N 30°01' W 093°59'0 0.0
2018-Jun-21 01:30N 30°01' W 093°59'0 0.0
2018-Jun-21 01:00N 30°01' W 093°59'0 0.0
2018-Jun-21 00:30N 30°01' W 093°59'0 0.0
2018-Jun-21 00:00N 30°01' W 093°59'0 0.0
2018-Jun-20 23:30N 30°01' W 093°59'0 0.0
2018-Jun-20 23:00N 30°01' W 093°59'0 0.0
2018-Jun-20 22:29N 30°01' W 093°59'0 0.0
2018-Jun-20 22:00N 30°01' W 093°59'0 0.0
2018-Jun-20 21:30N 30°01' W 093°59'0 0.0
2018-Jun-20 21:00N 30°01' W 093°59'0 0.0
2018-Jun-20 20:30N 30°01' W 093°59'1 1.6
2018-Jun-20 20:00N 30°01' W 093°59'1 1.6
2018-Jun-20 19:31N 30°01' W 093°59'0 0.0
2018-Jun-20 19:00N 30°01' W 093°59'0 0.0
2018-Jun-20 18:31N 30°01' W 093°59'1 1.6
2018-Jun-20 18:01N 30°01' W 093°59'1 1.7
2018-Jun-20 17:31N 30°01' W 093°59'3 6.5
2018-Jun-20 17:01N 29°59' W 093°55'4 7.2
2018-Jun-20 16:30N 29°58' W 093°51'0 0.9
2018-Jun-20 16:00N 29°58' W 093°51'1 2.8
2018-Jun-20 15:30N 29°59' W 093°49'3 5.1
2018-Jun-20 15:01N 29°60' W 093°46'3 5.5
2018-Jun-20 14:31N 30°02' W 093°44'3 5.1
2018-Jun-20 14:01N 30°03' W 093°42'3 6.7
2018-Jun-20 13:30N 30°04' W 093°38'4 7.5
2018-Jun-20 13:00N 30°04' W 093°34'3 7.0
2018-Jun-20 12:30N 30°04' W 093°30'3 6.9
2018-Jun-20 12:00N 30°04' W 093°26'3 6.6
2018-Jun-20 11:30N 30°04' W 093°22'2 4.9
2018-Jun-20 11:01N 30°05' W 093°20'2 4.0
2018-Jun-20 10:30N 30°05' W 093°18'1 1.8
2018-Jun-20 09:59N 30°05' W 093°17'0 0.7
2018-Jun-20 09:30N 30°04' W 093°16'0 0.7
2018-Jun-20 09:00N 30°04' W 093°16'0 0.0
2018-Jun-20 08:31N 30°04' W 093°16'0 0.0
2018-Jun-20 08:00N 30°04' W 093°16'0 0.0
2018-Jun-20 07:30N 30°04' W 093°16'0 0.0
2018-Jun-20 07:01N 30°04' W 093°16'0 0.0
2018-Jun-20 06:30N 30°04' W 093°16'0 0.0
2018-Jun-20 06:01N 30°04' W 093°16'0 0.0
2018-Jun-20 05:30N 30°04' W 093°16'0 0.0
2018-Jun-20 05:00N 30°04' W 093°16'0 0.0
2018-Jun-20 04:31N 30°04' W 093°16'0 0.1
2018-Jun-20 04:01N 30°04' W 093°16'1 1.5
2018-Jun-20 03:30N 30°03' W 093°16'1 2.4
2018-Jun-20 03:00N 30°02' W 093°15'0 0.4
2018-Jun-20 02:30N 30°02' W 093°15'0 0.0
2018-Jun-20 02:01N 30°02' W 093°15'0 0.0
2018-Jun-20 01:31N 30°02' W 093°15'0 0.0
2018-Jun-20 01:00N 30°02' W 093°15'0 0.0
2018-Jun-20 00:30N 30°02' W 093°15'0 0.0
2018-Jun-20 00:00N 30°02' W 093°15'0 0.0
2018-Jun-19 23:30N 30°02' W 093°15'0 0.0
2018-Jun-19 23:01N 30°02' W 093°15'0 0.0
2018-Jun-19 22:30N 30°02' W 093°15'0 0.0
2018-Jun-19 22:01N 30°02' W 093°15'0 0.0
2018-Jun-19 21:30N 30°02' W 093°15'0 0.0
2018-Jun-19 21:01N 30°02' W 093°15'0 0.0
2018-Jun-19 20:31N 30°02' W 093°15'0 0.0
2018-Jun-19 20:01N 30°02' W 093°15'0 0.0
2018-Jun-19 19:30N 30°02' W 093°15'0 0.0
2018-Jun-19 19:00N 30°02' W 093°15'0 0.0
2018-Jun-19 18:31N 30°02' W 093°15'0 0.0
2018-Jun-19 18:01N 30°02' W 093°15'0 0.0
2018-Jun-19 17:31N 30°02' W 093°15'0 0.0
2018-Jun-19 17:00N 30°02' W 093°15'0 0.0
2018-Jun-19 16:31N 30°02' W 093°15'0 0.0
2018-Jun-19 16:00N 30°02' W 093°15'0 0.0
2018-Jun-19 15:31N 30°02' W 093°15'0 0.0
2018-Jun-19 15:00N 30°02' W 093°15'0 0.6
2018-Jun-19 14:30N 30°02' W 093°15'3 5.5
2018-Jun-19 14:00N 29°60' W 093°13'3 5.9
2018-Jun-19 13:30N 29°58' W 093°11'3 5.1
2018-Jun-19 13:00N 29°56' W 093°08'40 5.3
2018-Jun-19 05:33N 29°53' W 092°23'0 5.6
2018-Jun-19 05:30N 29°52' W 092°23'3 5.2
2018-Jun-19 04:59N 29°51' W 092°21'3 5.3
2018-Jun-19 04:31N 29°50' W 092°18'2 4.7
2018-Jun-19 04:01N 29°48' W 092°16'2 4.7
2018-Jun-19 03:31N 29°47' W 092°13'1 1.2
2018-Jun-19 03:00N 29°47' W 092°12'1 1.8
2018-Jun-19 02:30N 29°47' W 092°11'0 1.0
2018-Jun-19 02:00N 29°47' W 092°11'0 0.0
2018-Jun-19 01:30N 29°47' W 092°11'0 0.0
2018-Jun-19 01:00N 29°47' W 092°11'0 0.0
2018-Jun-19 00:30N 29°47' W 092°11'0 0.0
2018-Jun-19 00:00N 29°47' W 092°11'0 0.0
2018-Jun-18 23:30N 29°47' W 092°11'0 0.0
2018-Jun-18 23:00N 29°47' W 092°11'0 0.0
2018-Jun-18 22:31N 29°47' W 092°11'0 0.0
2018-Jun-18 22:00N 29°47' W 092°11'0 0.1
2018-Jun-18 21:30N 29°47' W 092°11'1 2.4
2018-Jun-18 21:01N 29°47' W 092°10'0 0.0
2018-Jun-18 20:30N 29°47' W 092°10'0 0.0
2018-Jun-18 20:01N 29°47' W 092°10'0 0.0
2018-Jun-18 19:30N 29°47' W 092°10'2 4.5
2018-Jun-18 19:00N 29°47' W 092°07'3 5.3
2018-Jun-18 18:30N 29°48' W 092°04'3 6.0
2018-Jun-18 18:00N 29°49' W 092°01'3 6.8
2018-Jun-18 17:30N 29°50' W 091°57'53 4.7
2018-Jun-18 06:17N 29°36' W 090°58'2 5.7
2018-Jun-18 06:01N 29°35' W 090°57'3 5.6
2018-Jun-18 05:30N 29°33' W 090°55'3 5.8
2018-Jun-18 05:00N 29°32' W 090°51'3 6.1
2018-Jun-18 04:30N 29°32' W 090°48'3 5.4
2018-Jun-18 04:00N 29°33' W 090°45'2 4.8
2018-Jun-18 03:31N 29°35' W 090°43'2 4.6
2018-Jun-18 03:00N 29°37' W 090°42'2 3.8
2018-Jun-18 02:31N 29°36' W 090°40'3 5.8
2018-Jun-18 02:01N 29°35' W 090°37'2 4.9
2018-Jun-18 01:30N 29°34' W 090°34'3 5.5
2018-Jun-18 01:00N 29°34' W 090°31'3 6.1
2018-Jun-18 00:30N 29°33' W 090°27'3 6.0
2018-Jun-17 23:59N 29°33' W 090°24'  

Dump ship's entire track history